createdAt,value
2017-12-21T00:00:34.915Z,17.90
2017-12-21T00:01:34.914Z,18.40
2017-12-21T00:02:34.919Z,16.20
2017-12-21T00:03:34.921Z,14.90
2017-12-21T00:04:34.925Z,16.30
2017-12-21T00:05:34.910Z,16.60
2017-12-21T00:06:34.906Z,15.30
2017-12-21T00:07:34.910Z,18.20
2017-12-21T00:08:34.903Z,16.20
2017-12-21T00:09:34.910Z,14.40
2017-12-21T00:10:34.910Z,14.30
2017-12-21T00:11:34.900Z,13.90
2017-12-21T00:12:34.897Z,16.30
2017-12-21T00:13:34.900Z,14.90
2017-12-21T00:14:34.894Z,20.70
2017-12-21T00:15:34.898Z,19.20
2017-12-21T00:16:34.899Z,12.60
2017-12-21T00:17:34.895Z,15.30
2017-12-21T00:18:34.907Z,13.90
2017-12-21T00:19:34.908Z,15.50
2017-12-21T00:20:34.894Z,13.70
2017-12-21T00:21:34.889Z,14.50
2017-12-21T00:22:34.889Z,13.50
2017-12-21T00:23:34.891Z,16.90
2017-12-21T00:24:34.888Z,13.00
2017-12-21T00:25:34.977Z,14.70
2017-12-21T00:26:34.881Z,16.30
2017-12-21T00:27:34.884Z,16.00
2017-12-21T00:28:34.881Z,11.10
2017-12-21T00:29:34.898Z,15.90
2017-12-21T00:30:34.876Z,17.40
2017-12-21T00:31:34.873Z,13.70
2017-12-21T00:32:34.883Z,18.90
2017-12-21T00:33:34.875Z,14.10
2017-12-21T00:34:34.874Z,13.00
2017-12-21T00:35:34.869Z,12.80
2017-12-21T00:36:34.868Z,12.60
2017-12-21T00:37:34.869Z,13.60
2017-12-21T00:38:34.867Z,14.10
2017-12-21T00:39:34.870Z,13.40
2017-12-21T00:40:34.867Z,13.70
2017-12-21T00:41:34.862Z,13.70
2017-12-21T00:42:34.859Z,13.70
2017-12-21T00:43:34.857Z,13.30
2017-12-21T00:44:34.856Z,14.80
2017-12-21T00:45:34.861Z,13.30
2017-12-21T00:46:34.870Z,15.40
2017-12-21T00:47:34.866Z,12.60
2017-12-21T00:48:34.856Z,13.60
2017-12-21T00:49:34.940Z,15.90
2017-12-21T00:50:34.846Z,15.60
2017-12-21T00:51:34.849Z,15.30
2017-12-21T00:52:34.854Z,12.50
2017-12-21T00:53:34.846Z,15.00
2017-12-21T00:54:34.844Z,12.70
2017-12-21T00:55:34.845Z,11.40
2017-12-21T00:56:34.843Z,12.40
2017-12-21T00:57:34.837Z,12.80
2017-12-21T00:58:34.841Z,10.90
2017-12-21T00:59:34.836Z,16.90
2017-12-21T01:00:34.835Z,13.50
2017-12-21T01:01:34.839Z,14.40
2017-12-21T01:02:34.836Z,20.70
2017-12-21T01:03:34.830Z,16.40
2017-12-21T01:04:34.930Z,13.80
2017-12-21T01:05:34.831Z,11.30
2017-12-21T01:06:34.827Z,17.20
2017-12-21T01:07:34.829Z,11.90
2017-12-21T01:08:34.823Z,14.80
2017-12-21T01:09:34.820Z,12.70
2017-12-21T01:10:34.831Z,15.70
2017-12-21T01:11:34.822Z,9.90
2017-12-21T01:12:34.815Z,12.70
2017-12-21T01:13:34.819Z,10.20
2017-12-21T01:14:34.816Z,14.70
2017-12-21T01:15:34.820Z,11.20
2017-12-21T01:16:34.812Z,13.20
2017-12-21T01:17:34.807Z,12.70
2017-12-21T01:18:34.817Z,14.20
2017-12-21T01:19:34.813Z,11.10
2017-12-21T01:20:34.809Z,14.00
2017-12-21T01:21:34.807Z,10.20
2017-12-21T01:22:34.809Z,13.70
2017-12-21T01:23:34.804Z,11.40
2017-12-21T01:24:34.798Z,11.70
2017-12-21T01:25:34.825Z,11.70
2017-12-21T01:26:34.803Z,12.80
2017-12-21T01:27:34.802Z,13.70
2017-12-21T01:28:34.800Z,10.30
2017-12-21T01:29:34.938Z,11.60
2017-12-21T01:30:34.800Z,12.60
2017-12-21T01:31:35.321Z,12.40
2017-12-21T01:32:34.799Z,10.20
2017-12-21T01:33:34.842Z,11.70
2017-12-21T01:34:34.998Z,13.10
2017-12-21T01:35:34.913Z,11.30
2017-12-21T01:36:34.839Z,9.60
2017-12-21T01:37:34.872Z,17.40
2017-12-21T01:38:34.791Z,11.90
2017-12-21T01:39:34.793Z,12.10
2017-12-21T01:40:34.823Z,11.20
2017-12-21T01:41:34.781Z,11.80
2017-12-21T01:42:34.792Z,10.40
2017-12-21T01:43:34.779Z,11.30
2017-12-21T01:44:34.783Z,11.30
2017-12-21T01:45:34.802Z,11.70
2017-12-21T01:46:34.786Z,11.50
2017-12-21T01:47:34.769Z,11.90
2017-12-21T01:48:34.772Z,12.80
2017-12-21T01:49:34.768Z,11.90
2017-12-21T01:50:34.767Z,10.20
2017-12-21T01:51:34.766Z,15.70
2017-12-21T01:52:34.762Z,12.60
2017-12-21T01:53:34.764Z,13.40
2017-12-21T01:54:34.767Z,11.30
2017-12-21T01:55:34.761Z,12.70
2017-12-21T01:56:34.760Z,9.80
2017-12-21T01:57:34.764Z,11.70
2017-12-21T01:58:34.756Z,11.60
2017-12-21T01:59:34.756Z,11.90
2017-12-21T02:00:34.757Z,11.40
2017-12-21T02:01:34.756Z,10.50
2017-12-21T02:02:34.779Z,11.50
2017-12-21T02:03:34.763Z,12.20
2017-12-21T02:04:34.749Z,11.60
2017-12-21T02:05:34.766Z,13.10
2017-12-21T02:06:34.749Z,13.90
2017-12-21T02:07:34.772Z,10.80
2017-12-21T02:08:34.741Z,11.10
2017-12-21T02:09:34.741Z,10.00
2017-12-21T02:10:34.741Z,13.20
2017-12-21T02:11:34.739Z,25.00
2017-12-21T02:12:34.739Z,13.80
2017-12-21T02:13:34.739Z,10.20
2017-12-21T02:14:34.739Z,10.20
2017-12-21T02:15:34.738Z,10.50
2017-12-21T02:16:34.736Z,10.90
2017-12-21T02:17:34.742Z,10.50
2017-12-21T02:18:34.737Z,10.20
2017-12-21T02:19:34.729Z,12.20
2017-12-21T02:20:34.736Z,11.60
2017-12-21T02:21:34.740Z,7.90
2017-12-21T02:22:34.738Z,8.60
2017-12-21T02:23:34.780Z,10.70
2017-12-21T02:24:34.729Z,10.10
2017-12-21T02:25:34.748Z,10.10
2017-12-21T02:26:34.721Z,7.10
2017-12-21T02:27:34.724Z,8.50
2017-12-21T02:28:34.720Z,10.30
2017-12-21T02:29:34.719Z,7.60
2017-12-21T02:30:34.718Z,11.20
2017-12-21T02:31:34.722Z,8.00
2017-12-21T02:32:34.727Z,7.30
2017-12-21T02:33:34.720Z,8.70
2017-12-21T02:34:34.713Z,10.90
2017-12-21T02:35:34.714Z,7.20
2017-12-21T02:36:34.736Z,7.20
2017-12-21T02:37:34.712Z,7.50
2017-12-21T02:38:34.713Z,6.10
2017-12-21T02:39:34.706Z,6.30
2017-12-21T02:40:34.704Z,7.90
2017-12-21T02:41:34.707Z,7.60
2017-12-21T02:42:34.703Z,7.60
2017-12-21T02:43:34.702Z,6.80
2017-12-21T02:44:34.702Z,6.60
2017-12-21T02:45:34.701Z,8.60
2017-12-21T02:46:34.700Z,7.10
2017-12-21T02:47:34.698Z,7.30
2017-12-21T02:48:34.699Z,8.80
2017-12-21T02:49:34.821Z,6.00
2017-12-21T02:50:34.768Z,10.50
2017-12-21T02:51:34.690Z,8.60
2017-12-21T02:52:34.696Z,7.30
2017-12-21T02:53:34.692Z,9.00
2017-12-21T02:54:34.768Z,8.10
2017-12-21T02:55:34.700Z,8.00
2017-12-21T02:56:34.686Z,8.50
2017-12-21T02:57:34.690Z,6.90
2017-12-21T02:58:34.681Z,11.40
2017-12-21T02:59:34.685Z,10.60
2017-12-21T03:00:34.683Z,6.00
2017-12-21T03:01:34.720Z,6.60
2017-12-21T03:02:35.012Z,9.50
2017-12-21T03:03:35.189Z,7.40
2017-12-21T03:04:34.673Z,9.50
2017-12-21T03:05:34.680Z,7.40
2017-12-21T03:06:34.676Z,8.80
2017-12-21T03:07:34.675Z,6.20
2017-12-21T03:08:34.670Z,6.20
2017-12-21T03:09:34.669Z,8.70
2017-12-21T03:10:34.682Z,6.30
2017-12-21T03:11:35.151Z,8.30
2017-12-21T03:12:34.671Z,6.30
2017-12-21T03:13:34.666Z,8.90
2017-12-21T03:14:34.663Z,7.00
2017-12-21T03:15:34.735Z,6.10
2017-12-21T03:16:34.670Z,5.90
2017-12-21T03:17:34.666Z,7.90
2017-12-21T03:18:34.658Z,8.70
2017-12-21T03:19:34.657Z,6.30
2017-12-21T03:20:34.660Z,6.10
2017-12-21T03:21:34.660Z,9.00
2017-12-21T03:22:34.658Z,9.00
2017-12-21T03:23:34.655Z,5.60
2017-12-21T03:24:34.654Z,7.70
2017-12-21T03:25:34.652Z,10.20
2017-12-21T03:26:34.658Z,8.60
2017-12-21T03:27:34.657Z,5.60
2017-12-21T03:28:34.657Z,7.30
2017-12-21T03:29:34.654Z,9.40
2017-12-21T03:30:34.650Z,7.20
2017-12-21T03:31:34.642Z,6.50
2017-12-21T03:32:34.643Z,10.40
2017-12-21T03:33:34.642Z,5.60
2017-12-21T03:34:34.647Z,7.50
2017-12-21T03:35:34.641Z,7.00
2017-12-21T03:36:34.637Z,5.20
2017-12-21T03:37:34.639Z,6.60
2017-12-21T03:38:34.639Z,5.60
2017-12-21T03:39:34.637Z,9.00
2017-12-21T03:40:34.638Z,6.50
2017-12-21T03:41:34.633Z,5.90
2017-12-21T03:42:34.632Z,8.50
2017-12-21T03:43:34.632Z,5.70
2017-12-21T03:44:34.634Z,6.40
2017-12-21T03:45:34.631Z,8.20
2017-12-21T03:46:34.634Z,6.00
2017-12-21T03:47:34.632Z,5.00
2017-12-21T03:48:34.684Z,8.00
2017-12-21T03:49:34.628Z,11.50
2017-12-21T03:50:34.626Z,5.10
2017-12-21T03:51:34.624Z,6.10
2017-12-21T03:52:34.627Z,6.20
2017-12-21T03:53:34.627Z,5.60
2017-12-21T03:54:34.619Z,5.00
2017-12-21T03:55:34.622Z,4.70
2017-12-21T03:56:34.620Z,6.30
2017-12-21T03:57:34.620Z,5.70
2017-12-21T03:58:34.617Z,5.50
2017-12-21T03:59:34.629Z,5.50
2017-12-21T04:00:34.614Z,7.60
2017-12-21T04:01:34.626Z,5.90
2017-12-21T04:02:34.694Z,5.60
2017-12-21T04:03:34.619Z,5.20
2017-12-21T04:04:34.742Z,8.60
2017-12-21T04:05:34.611Z,6.10
2017-12-21T04:06:34.612Z,7.70
2017-12-21T04:07:34.610Z,6.90
2017-12-21T04:08:34.610Z,6.00
2017-12-21T04:09:34.630Z,5.80
2017-12-21T04:10:34.664Z,5.00
2017-12-21T04:11:34.661Z,5.30
2017-12-21T04:12:34.620Z,11.80
2017-12-21T04:13:34.607Z,6.80
2017-12-21T04:14:34.656Z,5.40
2017-12-21T04:15:34.656Z,4.90
2017-12-21T04:16:34.603Z,5.40
2017-12-21T04:17:34.641Z,6.50
2017-12-21T04:18:34.599Z,10.20
2017-12-21T04:19:34.622Z,7.90
2017-12-21T04:20:34.601Z,5.60
2017-12-21T04:21:34.598Z,6.30
2017-12-21T04:22:34.597Z,8.80
2017-12-21T04:23:34.597Z,7.20
2017-12-21T04:24:34.591Z,5.30
2017-12-21T04:25:34.601Z,8.70
2017-12-21T04:26:34.598Z,6.10
2017-12-21T04:27:34.590Z,9.00
2017-12-21T04:28:34.593Z,9.30
2017-12-21T04:29:34.590Z,6.20
2017-12-21T04:30:34.609Z,7.20
2017-12-21T04:31:34.597Z,8.00
2017-12-21T04:32:34.592Z,5.50
2017-12-21T04:33:34.591Z,5.90
2017-12-21T04:34:34.585Z,7.40
2017-12-21T04:35:34.584Z,5.50
2017-12-21T04:36:34.584Z,6.00
2017-12-21T04:37:34.583Z,5.40
2017-12-21T04:38:34.581Z,6.50
2017-12-21T04:39:34.587Z,6.70
2017-12-21T04:40:34.581Z,7.70
2017-12-21T04:41:34.582Z,4.80
2017-12-21T04:42:34.579Z,7.30
2017-12-21T04:43:34.580Z,5.90
2017-12-21T04:44:34.580Z,8.10
2017-12-21T04:45:34.578Z,5.70
2017-12-21T04:46:34.629Z,6.10
2017-12-21T04:47:34.576Z,6.10
2017-12-21T04:48:34.578Z,4.90
2017-12-21T04:49:34.577Z,8.60
2017-12-21T04:50:34.577Z,5.80
2017-12-21T04:51:34.571Z,8.20
2017-12-21T04:52:34.581Z,7.50
2017-12-21T04:53:34.573Z,6.30
2017-12-21T04:54:34.574Z,6.00
2017-12-21T04:55:34.574Z,6.50
2017-12-21T04:56:34.571Z,5.20
2017-12-21T04:57:34.570Z,8.40
2017-12-21T04:58:34.568Z,4.90
2017-12-21T04:59:34.576Z,6.60
2017-12-21T05:00:34.576Z,5.90
2017-12-21T05:01:34.565Z,7.50
2017-12-21T05:02:34.563Z,6.30
2017-12-21T05:03:34.567Z,9.40
2017-12-21T05:04:34.576Z,13.10
2017-12-21T05:05:34.563Z,9.20
2017-12-21T05:06:34.562Z,6.70
2017-12-21T05:07:34.567Z,8.00
2017-12-21T05:08:34.577Z,5.40
2017-12-21T05:09:34.569Z,7.10
2017-12-21T05:10:34.570Z,6.70
2017-12-21T05:11:34.611Z,5.90
2017-12-21T05:12:34.556Z,8.50
2017-12-21T05:13:34.562Z,7.30
2017-12-21T05:14:34.553Z,8.40
2017-12-21T05:15:34.554Z,7.00
2017-12-21T05:16:34.557Z,6.00
2017-12-21T05:17:34.553Z,6.20
2017-12-21T05:18:34.557Z,10.40
2017-12-21T05:19:34.551Z,8.70
2017-12-21T05:20:34.558Z,8.90
2017-12-21T05:21:34.558Z,8.80
2017-12-21T05:22:34.566Z,9.30
2017-12-21T05:23:34.551Z,7.90
2017-12-21T05:24:34.549Z,8.10
2017-12-21T05:25:34.547Z,6.90
2017-12-21T05:26:34.554Z,7.50
2017-12-21T05:27:34.548Z,7.00
2017-12-21T05:28:34.550Z,7.60
2017-12-21T05:29:34.548Z,7.80
2017-12-21T05:30:34.553Z,9.00
2017-12-21T05:31:34.545Z,11.40
2017-12-21T05:32:34.547Z,11.30
2017-12-21T05:33:34.546Z,13.90
2017-12-21T05:34:34.540Z,14.80
2017-12-21T05:35:34.542Z,12.70
2017-12-21T05:36:34.542Z,19.50
2017-12-21T05:37:34.546Z,22.90
2017-12-21T05:38:34.552Z,16.40
2017-12-21T05:39:34.541Z,20.20
2017-12-21T05:40:34.544Z,20.30
2017-12-21T05:41:34.539Z,17.70
2017-12-21T05:42:34.535Z,16.80
2017-12-21T05:43:34.533Z,19.70
2017-12-21T05:44:34.534Z,15.30
2017-12-21T05:45:34.536Z,17.70
2017-12-21T05:46:34.538Z,24.90
2017-12-21T05:47:34.535Z,20.70
2017-12-21T05:48:34.536Z,24.40
2017-12-21T05:49:34.533Z,18.60
2017-12-21T05:50:34.534Z,19.60
2017-12-21T05:51:34.527Z,12.20
2017-12-21T05:52:34.529Z,10.60
2017-12-21T05:53:34.528Z,12.60
2017-12-21T05:54:34.528Z,16.00
2017-12-21T05:55:34.527Z,15.30
2017-12-21T05:56:34.533Z,22.20
2017-12-21T05:57:34.530Z,35.00
2017-12-21T05:58:34.528Z,24.90
2017-12-21T05:59:34.521Z,61.40
2017-12-21T06:00:34.524Z,47.30
2017-12-21T06:01:34.521Z,44.60
2017-12-21T06:02:34.526Z,50.60
2017-12-21T06:03:34.524Z,52.30
2017-12-21T06:04:34.519Z,43.00
2017-12-21T06:05:34.527Z,15.70
2017-12-21T06:06:34.522Z,13.90
2017-12-21T06:07:34.526Z,13.90
2017-12-21T06:08:34.513Z,11.90
2017-12-21T06:09:34.607Z,14.50
2017-12-21T06:10:34.519Z,11.80
2017-12-21T06:11:34.511Z,10.80
2017-12-21T06:12:34.508Z,12.90
2017-12-21T06:13:34.508Z,22.60
2017-12-21T06:14:34.512Z,20.00
2017-12-21T06:15:34.508Z,16.50
2017-12-21T06:16:34.575Z,28.30
2017-12-21T06:17:34.505Z,26.20
2017-12-21T06:18:34.505Z,19.10
2017-12-21T06:19:34.505Z,19.90
2017-12-21T06:20:34.498Z,46.70
2017-12-21T06:21:34.507Z,35.30
2017-12-21T06:22:34.496Z,37.60
2017-12-21T06:23:34.622Z,23.30
2017-12-21T06:24:34.499Z,16.80
2017-12-21T06:25:34.494Z,15.00
2017-12-21T06:26:34.657Z,12.70
2017-12-21T06:27:34.496Z,17.60
2017-12-21T06:28:34.492Z,18.90
2017-12-21T06:29:34.491Z,20.50
2017-12-21T06:30:34.508Z,27.90
2017-12-21T06:31:34.491Z,18.10
2017-12-21T06:32:34.490Z,15.60
2017-12-21T06:33:34.486Z,14.10
2017-12-21T06:34:34.488Z,17.60
2017-12-21T06:35:34.491Z,13.20
2017-12-21T06:36:34.533Z,16.40
2017-12-21T06:37:34.481Z,14.80
2017-12-21T06:38:34.483Z,11.70
2017-12-21T06:39:34.477Z,13.00
2017-12-21T06:40:34.486Z,13.50
2017-12-21T06:41:34.474Z,15.50
2017-12-21T06:42:34.536Z,14.90
2017-12-21T06:43:34.481Z,15.20
2017-12-21T06:44:34.473Z,13.40
2017-12-21T06:45:34.481Z,19.20
2017-12-21T06:46:34.648Z,12.70
2017-12-21T06:47:34.468Z,13.00
2017-12-21T06:48:34.468Z,13.30
2017-12-21T06:49:34.464Z,16.20
2017-12-21T06:50:34.472Z,13.10
2017-12-21T06:51:34.465Z,14.90
2017-12-21T06:52:34.470Z,13.90
2017-12-21T06:53:34.475Z,14.60
2017-12-21T06:54:34.458Z,14.90
2017-12-21T06:55:34.460Z,16.30
2017-12-21T06:56:34.459Z,14.40
2017-12-21T06:57:34.458Z,14.00
2017-12-21T06:58:34.454Z,14.70
2017-12-21T06:59:34.468Z,13.80
2017-12-21T07:00:34.461Z,15.30
2017-12-21T07:01:34.451Z,12.90
2017-12-21T07:02:34.484Z,13.80
2017-12-21T07:03:34.459Z,18.20
2017-12-21T07:04:34.448Z,17.60
2017-12-21T07:05:34.508Z,16.40
2017-12-21T07:06:34.448Z,15.90
2017-12-21T07:07:34.452Z,15.30
2017-12-21T07:08:34.470Z,14.50
2017-12-21T07:09:34.448Z,14.20
2017-12-21T07:10:34.441Z,15.70
2017-12-21T07:11:34.439Z,16.20
2017-12-21T07:12:34.440Z,14.90
2017-12-21T07:13:34.441Z,16.80
2017-12-21T07:14:34.439Z,16.80
2017-12-21T07:15:34.460Z,17.30
2017-12-21T07:16:34.434Z,17.50
2017-12-21T07:17:34.434Z,13.80
2017-12-21T07:18:34.435Z,16.00
2017-12-21T07:19:34.435Z,15.50
2017-12-21T07:20:34.428Z,17.30
2017-12-21T07:21:34.426Z,16.40
2017-12-21T07:22:34.429Z,15.10
2017-12-21T07:23:34.425Z,15.10
2017-12-21T07:24:34.427Z,13.10
2017-12-21T07:25:34.429Z,13.90
2017-12-21T07:26:34.428Z,13.60
2017-12-21T07:27:34.429Z,17.00
2017-12-21T07:28:34.428Z,12.90
2017-12-21T07:29:34.422Z,13.90
2017-12-21T07:30:34.428Z,14.00
2017-12-21T07:33:06.537Z,12.60
2017-12-21T07:34:06.487Z,13.80
2017-12-21T07:35:06.488Z,15.80
2017-12-21T07:36:06.489Z,17.10
2017-12-21T07:37:06.485Z,12.40
2017-12-21T07:38:06.484Z,13.60
2017-12-21T07:39:06.578Z,14.20
2017-12-21T07:40:06.490Z,19.50
2017-12-21T07:41:06.479Z,16.20
2017-12-21T07:42:06.480Z,18.30
2017-12-21T07:43:06.478Z,14.00
2017-12-21T07:44:06.479Z,13.70
2017-12-21T07:45:06.499Z,14.60
2017-12-21T07:46:06.484Z,16.20
2017-12-21T07:47:06.474Z,15.40
2017-12-21T07:48:06.514Z,15.60
2017-12-21T07:49:06.475Z,15.90
2017-12-21T07:50:06.477Z,16.50
2017-12-21T07:51:06.473Z,18.00
2017-12-21T07:52:06.472Z,15.00
2017-12-21T07:53:06.468Z,18.20
2017-12-21T07:54:06.467Z,16.20
2017-12-21T07:55:06.462Z,15.20
2017-12-21T07:56:06.463Z,16.80
2017-12-21T07:57:06.470Z,18.50
2017-12-21T07:58:06.462Z,12.90
2017-12-21T07:59:06.462Z,14.40
2017-12-21T08:00:06.461Z,12.70
2017-12-21T08:01:06.462Z,14.30
2017-12-21T08:02:06.460Z,12.40
2017-12-21T08:03:06.459Z,13.50
2017-12-21T08:04:06.458Z,13.80
2017-12-21T08:05:06.460Z,12.00
2017-12-21T08:06:06.461Z,12.90
2017-12-21T08:07:06.453Z,12.90
2017-12-21T08:08:06.455Z,14.50
2017-12-21T08:09:06.449Z,12.10
2017-12-21T08:10:06.458Z,14.80
2017-12-21T08:11:06.455Z,12.40
2017-12-21T08:12:06.458Z,15.10
2017-12-21T08:13:06.476Z,10.90
2017-12-21T08:14:06.452Z,11.60
2017-12-21T08:15:06.454Z,13.30
2017-12-21T08:16:06.446Z,13.10
2017-12-21T08:17:06.445Z,12.60
2017-12-21T08:18:06.482Z,14.10
2017-12-21T08:19:06.441Z,13.00
2017-12-21T08:20:06.441Z,11.90
2017-12-21T08:21:06.450Z,12.50
2017-12-21T08:22:06.438Z,12.70
2017-12-21T08:23:06.442Z,10.80
2017-12-21T08:24:06.438Z,10.50
2017-12-21T08:25:06.434Z,13.70
2017-12-21T08:26:06.431Z,11.30
2017-12-21T08:27:06.433Z,11.20
2017-12-21T08:28:06.430Z,12.60
2017-12-21T08:29:06.430Z,9.90
2017-12-21T08:30:06.425Z,11.20
2017-12-21T08:31:06.433Z,10.80
2017-12-21T08:32:06.440Z,11.30
2017-12-21T08:33:06.423Z,11.40
2017-12-21T08:34:06.423Z,13.20
2017-12-21T08:35:06.435Z,9.20
2017-12-21T08:36:06.437Z,10.30
2017-12-21T08:37:06.423Z,12.10
2017-12-21T08:38:06.419Z,13.10
2017-12-21T08:39:06.417Z,8.90
2017-12-21T08:40:06.413Z,9.90
2017-12-21T08:41:06.444Z,8.60
2017-12-21T08:42:06.417Z,10.10
2017-12-21T08:43:06.411Z,12.70
2017-12-21T08:44:06.410Z,9.50
2017-12-21T08:45:06.408Z,13.00
2017-12-21T08:46:06.404Z,10.00
2017-12-21T08:47:06.398Z,10.80
2017-12-21T08:48:06.400Z,9.40
2017-12-21T08:49:06.396Z,12.50
2017-12-21T08:50:06.399Z,10.20
2017-12-21T08:51:06.394Z,10.90
2017-12-21T08:52:06.399Z,9.60
2017-12-21T08:53:06.395Z,9.20
2017-12-21T08:54:06.400Z,12.40
2017-12-21T08:55:06.397Z,8.60
2017-12-21T08:56:06.390Z,16.00
2017-12-21T08:57:06.386Z,56.60
2017-12-21T08:58:06.384Z,13.80
2017-12-21T08:59:06.385Z,12.70
2017-12-21T09:00:06.386Z,9.10
2017-12-21T09:01:06.382Z,9.60
2017-12-21T09:02:06.375Z,10.00
2017-12-21T09:04:39.498Z,26.90
2017-12-21T09:05:39.450Z,18.50
2017-12-21T09:06:39.470Z,17.60
2017-12-21T09:07:39.445Z,25.20
2017-12-21T09:08:39.433Z,22.80
2017-12-21T09:09:39.431Z,24.60
2017-12-21T09:10:39.439Z,22.80
2017-12-21T09:11:39.435Z,21.10
2017-12-21T09:12:39.426Z,15.40
2017-12-21T09:13:39.428Z,15.80
2017-12-21T09:14:39.426Z,13.60
2017-12-21T09:15:39.422Z,11.30
2017-12-21T09:16:39.420Z,11.70
2017-12-21T09:17:39.420Z,9.30
2017-12-21T09:18:39.419Z,8.20
2017-12-21T09:19:39.419Z,10.70
2017-12-21T09:20:39.459Z,9.40
2017-12-21T09:21:39.418Z,10.00
2017-12-21T09:22:39.410Z,9.80
2017-12-21T09:23:39.416Z,11.90
2017-12-21T09:24:39.412Z,10.30
2017-12-21T09:25:39.407Z,43.50
2017-12-21T09:26:39.406Z,65.80
2017-12-21T09:27:39.406Z,34.70
2017-12-21T09:28:39.407Z,24.90
2017-12-21T09:29:39.447Z,19.10
2017-12-21T09:30:39.402Z,8.20
2017-12-21T09:31:39.411Z,24.10
2017-12-21T09:32:39.401Z,27.40
2017-12-21T09:33:39.396Z,15.90
2017-12-21T09:34:39.401Z,10.40
2017-12-21T09:35:39.396Z,17.00
2017-12-21T09:36:39.389Z,34.60
2017-12-21T09:37:39.392Z,12.80
2017-12-21T09:38:39.402Z,14.50
2017-12-21T09:39:39.391Z,17.00
2017-12-21T09:40:39.384Z,18.50
2017-12-21T09:41:39.382Z,12.40
2017-12-21T09:42:39.381Z,10.00
2017-12-21T09:43:39.380Z,13.20
2017-12-21T09:44:39.387Z,9.50
2017-12-21T09:45:39.375Z,10.50
2017-12-21T09:46:39.377Z,10.80
2017-12-21T09:47:39.381Z,8.00
2017-12-21T09:48:39.387Z,9.00
2017-12-21T09:49:39.371Z,10.80
2017-12-21T09:50:39.376Z,8.80
2017-12-21T09:51:39.376Z,11.20
2017-12-21T09:52:39.367Z,8.80
2017-12-21T09:53:39.368Z,7.30
2017-12-21T09:54:39.364Z,10.50
2017-12-21T09:55:39.372Z,14.90
2017-12-21T09:56:39.364Z,16.20
2017-12-21T09:57:39.364Z,14.10
2017-12-21T09:58:39.358Z,12.60
2017-12-21T09:59:39.361Z,23.70
2017-12-21T10:00:39.355Z,17.90
2017-12-21T10:01:39.350Z,10.70
2017-12-21T10:02:39.350Z,14.40
2017-12-21T10:03:39.350Z,9.70
2017-12-21T10:04:39.350Z,10.70
2017-12-21T10:05:39.349Z,20.40
2017-12-21T10:06:39.344Z,18.80
2017-12-21T10:07:39.344Z,10.30
2017-12-21T10:08:39.346Z,16.20
2017-12-21T10:09:39.342Z,15.30
2017-12-21T10:10:39.344Z,17.90
2017-12-21T10:11:39.342Z,16.90
2017-12-21T10:12:39.335Z,16.30
2017-12-21T10:13:39.331Z,16.50
2017-12-21T10:14:39.341Z,20.80
2017-12-21T10:15:39.332Z,20.30
2017-12-21T10:16:39.325Z,29.00
2017-12-21T10:17:39.323Z,18.30
2017-12-21T10:18:39.328Z,16.20
2017-12-21T10:19:39.322Z,15.30
2017-12-21T10:20:39.317Z,12.80
2017-12-21T10:21:39.316Z,12.90
2017-12-21T10:22:39.315Z,9.50
2017-12-21T10:23:39.323Z,11.40
2017-12-21T10:24:39.314Z,16.40
2017-12-21T10:25:39.352Z,15.60
2017-12-21T10:26:39.312Z,14.60
2017-12-21T10:27:39.308Z,11.20
2017-12-21T10:28:39.302Z,10.70
2017-12-21T10:29:39.312Z,9.20
2017-12-21T10:30:39.299Z,11.70
2017-12-21T10:31:39.310Z,7.60
2017-12-21T10:32:39.296Z,9.90
2017-12-21T10:33:39.326Z,12.30
2017-12-21T10:34:39.293Z,8.70
2017-12-21T10:35:39.291Z,7.60
2017-12-21T10:36:39.292Z,6.20
2017-12-21T10:37:39.292Z,6.30
2017-12-21T10:38:39.287Z,5.80
2017-12-21T10:39:39.293Z,6.60
2017-12-21T10:40:39.293Z,7.20
2017-12-21T10:41:39.283Z,8.60
2017-12-21T10:42:39.291Z,7.50
2017-12-21T10:43:39.279Z,7.70
2017-12-21T10:44:39.280Z,5.90
2017-12-21T10:45:39.275Z,8.90
2017-12-21T10:46:39.275Z,7.40
2017-12-21T10:47:39.272Z,9.10
2017-12-21T10:48:39.269Z,6.50
2017-12-21T10:49:39.269Z,6.80
2017-12-21T10:50:39.264Z,9.80
2017-12-21T10:51:39.266Z,6.60
2017-12-21T10:52:39.261Z,9.00
2017-12-21T10:53:39.257Z,7.70
2017-12-21T10:54:39.257Z,8.00
2017-12-21T10:55:39.259Z,8.70
2017-12-21T10:56:39.252Z,5.70
2017-12-21T10:57:39.254Z,7.40
2017-12-21T10:58:39.254Z,10.20
2017-12-21T10:59:39.251Z,5.50
2017-12-21T11:00:39.245Z,6.80
2017-12-21T11:01:39.243Z,4.90
2017-12-21T11:02:39.250Z,6.80
2017-12-21T11:03:39.248Z,9.70
2017-12-21T11:04:39.243Z,6.20
2017-12-21T11:05:39.238Z,8.00
2017-12-21T11:06:39.230Z,6.40
2017-12-21T11:07:39.236Z,7.10
2017-12-21T11:08:39.308Z,11.60
2017-12-21T11:09:39.229Z,7.20
2017-12-21T11:10:39.222Z,8.90
2017-12-21T11:11:39.221Z,8.50
2017-12-21T11:12:39.223Z,8.20
2017-12-21T11:13:39.217Z,6.50
2017-12-21T11:14:39.222Z,8.30
2017-12-21T11:15:39.215Z,7.00
2017-12-21T11:16:39.211Z,8.10
2017-12-21T11:17:39.208Z,8.80
2017-12-21T11:18:39.208Z,6.00
2017-12-21T11:19:39.211Z,10.90
2017-12-21T11:20:39.202Z,6.80
2017-12-21T11:21:39.200Z,8.40
2017-12-21T11:22:39.238Z,6.90
2017-12-21T11:23:39.204Z,6.40
2017-12-21T11:24:39.193Z,7.60
2017-12-21T11:25:39.189Z,6.40
2017-12-21T11:26:39.186Z,8.40
2017-12-21T11:27:39.185Z,7.00
2017-12-21T11:28:39.188Z,31.50
2017-12-21T11:29:39.198Z,14.50
2017-12-21T11:30:39.187Z,28.80
2017-12-21T11:31:39.183Z,20.60
2017-12-21T11:32:39.199Z,34.80
2017-12-21T11:33:39.172Z,14.90
2017-12-21T11:34:39.167Z,25.00
2017-12-21T11:35:39.172Z,17.20
2017-12-21T11:36:39.164Z,19.90
2017-12-21T11:37:39.165Z,28.60
2017-12-21T11:38:39.168Z,16.50
2017-12-21T11:39:39.161Z,11.00
2017-12-21T11:40:39.171Z,9.90
2017-12-21T11:41:39.163Z,10.00
2017-12-21T11:42:39.155Z,5.70
2017-12-21T11:43:39.152Z,6.70
2017-12-21T11:44:39.152Z,8.90
2017-12-21T11:45:39.154Z,10.10
2017-12-21T11:46:39.152Z,6.70
2017-12-21T11:47:39.161Z,7.80
2017-12-21T11:48:39.144Z,7.70
2017-12-21T11:49:39.139Z,7.20
2017-12-21T11:50:39.141Z,7.40
2017-12-21T11:53:11.259Z,8.40
2017-12-21T11:54:11.206Z,7.80
2017-12-21T11:55:11.203Z,6.90
2017-12-21T11:56:11.203Z,5.10
2017-12-21T11:57:11.204Z,5.50
2017-12-21T11:58:11.202Z,8.20
2017-12-21T11:59:11.213Z,5.20
2017-12-21T12:00:11.202Z,7.40
2017-12-21T12:01:11.200Z,7.10
2017-12-21T12:02:11.200Z,7.30
2017-12-21T12:03:11.195Z,5.30
2017-12-21T12:04:11.195Z,8.70
2017-12-21T12:05:11.188Z,7.70
2017-12-21T12:06:11.191Z,7.30
2017-12-21T12:07:11.186Z,7.10
2017-12-21T12:08:11.180Z,6.20
2017-12-21T12:09:11.190Z,9.00
2017-12-21T12:10:11.182Z,6.40
2017-12-21T12:11:11.183Z,5.20
2017-12-21T12:12:11.181Z,9.10
2017-12-21T12:13:11.172Z,6.00
2017-12-21T12:14:11.171Z,7.90
2017-12-21T12:15:11.172Z,5.40
2017-12-21T12:16:11.168Z,7.10
2017-12-21T12:17:11.173Z,8.20
2017-12-21T12:18:11.168Z,6.30
2017-12-21T12:19:11.162Z,6.50
2017-12-21T12:20:11.157Z,6.50
2017-12-21T12:21:11.162Z,5.90
2017-12-21T12:22:11.182Z,8.10
2017-12-21T12:23:11.165Z,4.70
2017-12-21T12:24:11.153Z,7.70
2017-12-21T12:25:11.157Z,5.10
2017-12-21T12:26:11.152Z,6.30
2017-12-21T12:27:11.156Z,7.70
2017-12-21T12:28:11.224Z,6.20
2017-12-21T12:29:11.143Z,6.70
2017-12-21T12:30:11.148Z,9.30
2017-12-21T12:31:11.140Z,6.70
2017-12-21T12:32:11.139Z,39.90
2017-12-21T12:33:11.144Z,42.50
2017-12-21T12:34:11.226Z,26.20
2017-12-21T12:35:11.132Z,7.50
2017-12-21T12:36:11.138Z,8.50
2017-12-21T12:37:11.135Z,7.30
2017-12-21T12:38:11.137Z,9.80
2017-12-21T12:39:11.128Z,7.40
2017-12-21T12:40:11.127Z,6.60
2017-12-21T12:41:11.121Z,7.60
2017-12-21T12:42:11.122Z,6.30
2017-12-21T12:43:11.118Z,7.40
2017-12-21T12:44:11.118Z,11.30
2017-12-21T12:45:11.126Z,8.70
2017-12-21T12:46:11.126Z,12.40
2017-12-21T12:47:11.111Z,18.80
2017-12-21T12:48:11.117Z,14.30
2017-12-21T12:49:11.121Z,13.40
2017-12-21T12:50:11.109Z,8.80
2017-12-21T12:51:11.100Z,12.60
2017-12-21T12:52:11.107Z,9.20
2017-12-21T12:53:11.101Z,7.90
2017-12-21T12:54:11.100Z,13.60
2017-12-21T12:55:11.174Z,15.80
2017-12-21T12:56:11.172Z,13.30
2017-12-21T12:57:11.186Z,12.40
2017-12-21T12:58:11.090Z,10.10
2017-12-21T12:59:11.108Z,9.40
2017-12-21T13:00:11.091Z,10.90
2017-12-21T13:01:11.093Z,4.70
2017-12-21T13:02:11.082Z,10.50
2017-12-21T13:03:11.088Z,9.70
2017-12-21T13:04:11.075Z,6.30
2017-12-21T13:05:11.076Z,7.40
2017-12-21T13:06:11.075Z,16.80
2017-12-21T13:07:11.066Z,11.10
2017-12-21T13:08:11.067Z,8.70